sensor_id;sensor_type;location;lat;lon;timestamp;temperature;humidity
11387;DHT22;5748;53.102;8.456;2022-08-19T00:01:51;20.40;60.80
11387;DHT22;5748;53.102;8.456;2022-08-19T00:04:21;20.30;60.60
11387;DHT22;5748;53.102;8.456;2022-08-19T00:06:51;20.30;60.70
11387;DHT22;5748;53.102;8.456;2022-08-19T00:09:20;20.30;60.80
11387;DHT22;5748;53.102;8.456;2022-08-19T00:11:48;20.30;60.70
11387;DHT22;5748;53.102;8.456;2022-08-19T00:14:17;20.30;60.60
11387;DHT22;5748;53.102;8.456;2022-08-19T00:16:47;20.30;60.80
11387;DHT22;5748;53.102;8.456;2022-08-19T00:19:17;20.30;60.80
11387;DHT22;5748;53.102;8.456;2022-08-19T00:21:44;20.30;60.60
11387;DHT22;5748;53.102;8.456;2022-08-19T00:24:16;20.30;60.80
11387;DHT22;5748;53.102;8.456;2022-08-19T00:26:44;20.30;61.40
11387;DHT22;5748;53.102;8.456;2022-08-19T00:29:19;20.30;61.10
11387;DHT22;5748;53.102;8.456;2022-08-19T00:31:48;20.30;61.90
11387;DHT22;5748;53.102;8.456;2022-08-19T00:34:18;20.30;61.50
11387;DHT22;5748;53.102;8.456;2022-08-19T00:36:45;20.30;61.50
11387;DHT22;5748;53.102;8.456;2022-08-19T00:39:17;20.40;62.40
11387;DHT22;5748;53.102;8.456;2022-08-19T00:41:46;20.40;61.90
11387;DHT22;5748;53.102;8.456;2022-08-19T00:44:19;20.40;61.90
11387;DHT22;5748;53.102;8.456;2022-08-19T00:46:50;20.40;61.80
11387;DHT22;5748;53.102;8.456;2022-08-19T00:49:25;20.40;62.00
11387;DHT22;5748;53.102;8.456;2022-08-19T00:51:59;20.50;62.30
11387;DHT22;5748;53.102;8.456;2022-08-19T00:54:36;20.50;62.00
11387;DHT22;5748;53.102;8.456;2022-08-19T00:57:06;20.50;62.50
11387;DHT22;5748;53.102;8.456;2022-08-19T00:59:45;20.60;62.10
11387;DHT22;5748;53.102;8.456;2022-08-19T01:02:17;20.60;62.70
11387;DHT22;5748;53.102;8.456;2022-08-19T01:04:46;20.60;62.20
11387;DHT22;5748;53.102;8.456;2022-08-19T01:07:14;20.60;62.10
11387;DHT22;5748;53.102;8.456;2022-08-19T01:09:42;20.60;62.10
11387;DHT22;5748;53.102;8.456;2022-08-19T01:12:09;20.60;62.00
11387;DHT22;5748;53.102;8.456;2022-08-19T01:14:37;20.70;62.10
11387;DHT22;5748;53.102;8.456;2022-08-19T01:17:06;20.70;62.10
11387;DHT22;5748;53.102;8.456;2022-08-19T01:19:38;20.60;62.00
11387;DHT22;5748;53.102;8.456;2022-08-19T01:22:27;20.70;62.30
11387;DHT22;5748;53.102;8.456;2022-08-19T01:25:04;20.70;63.30
11387;DHT22;5748;53.102;8.456;2022-08-19T01:27:57;20.70;62.70
11387;DHT22;5748;53.102;8.456;2022-08-19T01:30:34;20.70;63.20
11387;DHT22;5748;53.102;8.456;2022-08-19T01:33:02;20.60;62.50
11387;DHT22;5748;53.102;8.456;2022-08-19T01:35:49;20.60;61.90
11387;DHT22;5748;53.102;8.456;2022-08-19T01:38:23;20.60;63.10
11387;DHT22;5748;53.102;8.456;2022-08-19T01:40:52;20.60;62.80
11387;DHT22;5748;53.102;8.456;2022-08-19T01:43:22;20.60;62.00
11387;DHT22;5748;53.102;8.456;2022-08-19T01:45:56;20.60;62.10
11387;DHT22;5748;53.102;8.456;2022-08-19T01:48:25;20.50;62.40
11387;DHT22;5748;53.102;8.456;2022-08-19T01:50:56;20.50;62.80
11387;DHT22;5748;53.102;8.456;2022-08-19T01:53:25;20.50;62.10
11387;DHT22;5748;53.102;8.456;2022-08-19T01:59:17;20.40;63.20
11387;DHT22;5748;53.102;8.456;2022-08-19T02:01:47;20.40;62.30
11387;DHT22;5748;53.102;8.456;2022-08-19T02:04:14;20.30;61.80
11387;DHT22;5748;53.102;8.456;2022-08-19T02:06:52;20.30;61.80
11387;DHT22;5748;53.102;8.456;2022-08-19T02:09:58;20.30;62.70
11387;DHT22;5748;53.102;8.456;2022-08-19T02:12:25;20.20;63.10
11387;DHT22;5748;53.102;8.456;2022-08-19T02:14:52;20.10;61.80
11387;DHT22;5748;53.102;8.456;2022-08-19T02:17:21;20.10;62.00
11387;DHT22;5748;53.102;8.456;2022-08-19T02:20:02;20.10;62.40
11387;DHT22;5748;53.102;8.456;2022-08-19T02:22:36;20.00;63.20
11387;DHT22;5748;53.102;8.456;2022-08-19T02:25:08;20.00;62.80
11387;DHT22;5748;53.102;8.456;2022-08-19T02:27:36;19.90;62.40
11387;DHT22;5748;53.102;8.456;2022-08-19T02:30:06;19.90;62.30
11387;DHT22;5748;53.102;8.456;2022-08-19T02:32:35;19.90;62.40
11387;DHT22;5748;53.102;8.456;2022-08-19T02:35:03;19.90;62.20
11387;DHT22;5748;53.102;8.456;2022-08-19T02:37:46;19.90;62.30
11387;DHT22;5748;53.102;8.456;2022-08-19T02:40:49;19.80;63.10
11387;DHT22;5748;53.102;8.456;2022-08-19T02:43:19;19.80;63.10
11387;DHT22;5748;53.102;8.456;2022-08-19T02:45:47;19.80;62.30
11387;DHT22;5748;53.102;8.456;2022-08-19T02:48:16;19.80;62.20
11387;DHT22;5748;53.102;8.456;2022-08-19T02:50:44;19.80;62.30
11387;DHT22;5748;53.102;8.456;2022-08-19T02:53:12;19.70;62.20
11387;DHT22;5748;53.102;8.456;2022-08-19T02:55:43;19.70;62.30
11387;DHT22;5748;53.102;8.456;2022-08-19T02:58:13;19.60;62.50
11387;DHT22;5748;53.102;8.456;2022-08-19T03:00:44;19.60;62.40
11387;DHT22;5748;53.102;8.456;2022-08-19T03:03:13;19.50;62.30
11387;DHT22;5748;53.102;8.456;2022-08-19T03:05:50;19.40;62.20
11387;DHT22;5748;53.102;8.456;2022-08-19T03:08:18;19.30;62.70
11387;DHT22;5748;53.102;8.456;2022-08-19T03:10:47;19.30;62.20
11387;DHT22;5748;53.102;8.456;2022-08-19T03:13:17;19.30;62.40
11387;DHT22;5748;53.102;8.456;2022-08-19T03:15:46;19.20;62.50
11387;DHT22;5748;53.102;8.456;2022-08-19T03:18:32;19.10;62.40
11387;DHT22;5748;53.102;8.456;2022-08-19T03:21:03;19.10;63.40
11387;DHT22;5748;53.102;8.456;2022-08-19T03:23:32;19.00;63.40
11387;DHT22;5748;53.102;8.456;2022-08-19T03:26:16;19.00;62.60
11387;DHT22;5748;53.102;8.456;2022-08-19T03:28:45;19.00;63.50
11387;DHT22;5748;53.102;8.456;2022-08-19T03:31:18;19.00;62.70
11387;DHT22;5748;53.102;8.456;2022-08-19T03:33:46;18.90;62.70
11387;DHT22;5748;53.102;8.456;2022-08-19T03:36:18;18.90;62.60
11387;DHT22;5748;53.102;8.456;2022-08-19T03:38:49;18.80;63.00
11387;DHT22;5748;53.102;8.456;2022-08-19T03:41:20;18.80;62.80
11387;DHT22;5748;53.102;8.456;2022-08-19T03:43:50;18.80;63.00
11387;DHT22;5748;53.102;8.456;2022-08-19T03:46:20;18.70;63.00
11387;DHT22;5748;53.102;8.456;2022-08-19T03:48:50;18.70;63.00
11387;DHT22;5748;53.102;8.456;2022-08-19T03:51:20;18.70;63.10
11387;DHT22;5748;53.102;8.456;2022-08-19T03:53:51;18.70;63.10
11387;DHT22;5748;53.102;8.456;2022-08-19T03:56:20;18.60;63.10
11387;DHT22;5748;53.102;8.456;2022-08-19T03:58:49;18.60;63.10
11387;DHT22;5748;53.102;8.456;2022-08-19T04:01:18;18.50;63.00
11387;DHT22;5748;53.102;8.456;2022-08-19T04:03:48;18.50;63.00
11387;DHT22;5748;53.102;8.456;2022-08-19T04:06:17;18.50;63.00
11387;DHT22;5748;53.102;8.456;2022-08-19T04:08:48;18.60;63.20
11387;DHT22;5748;53.102;8.456;2022-08-19T04:11:17;18.60;63.20
11387;DHT22;5748;53.102;8.456;2022-08-19T04:13:48;18.50;63.00
11387;DHT22;5748;53.102;8.456;2022-08-19T04:16:16;18.60;63.10
11387;DHT22;5748;53.102;8.456;2022-08-19T04:18:45;18.50;63.00
11387;DHT22;5748;53.102;8.456;2022-08-19T04:21:16;18.50;63.00
11387;DHT22;5748;53.102;8.456;2022-08-19T04:23:47;18.50;63.20
11387;DHT22;5748;53.102;8.456;2022-08-19T04:26:37;18.50;63.20
11387;DHT22;5748;53.102;8.456;2022-08-19T04:29:10;18.50;63.80
11387;DHT22;5748;53.102;8.456;2022-08-19T04:31:40;18.50;63.20
11387;DHT22;5748;53.102;8.456;2022-08-19T04:34:10;18.50;63.00
11387;DHT22;5748;53.102;8.456;2022-08-19T04:36:41;18.40;62.90
11387;DHT22;5748;53.102;8.456;2022-08-19T04:39:12;18.40;63.00
11387;DHT22;5748;53.102;8.456;2022-08-19T04:41:50;18.50;63.20
11387;DHT22;5748;53.102;8.456;2022-08-19T04:44:36;18.40;63.50
11387;DHT22;5748;53.102;8.456;2022-08-19T04:47:03;18.50;63.90
11387;DHT22;5748;53.102;8.456;2022-08-19T04:49:31;18.50;63.10
11387;DHT22;5748;53.102;8.456;2022-08-19T04:51:59;18.50;63.10
11387;DHT22;5748;53.102;8.456;2022-08-19T04:54:27;18.50;63.20
11387;DHT22;5748;53.102;8.456;2022-08-19T04:56:54;18.50;63.20
11387;DHT22;5748;53.102;8.456;2022-08-19T04:59:43;18.50;63.20
11387;DHT22;5748;53.102;8.456;2022-08-19T05:02:10;18.50;64.10
11387;DHT22;5748;53.102;8.456;2022-08-19T05:04:38;18.50;63.40
11387;DHT22;5748;53.102;8.456;2022-08-19T05:07:05;18.50;63.40
11387;DHT22;5748;53.102;8.456;2022-08-19T05:09:34;18.50;63.60
11387;DHT22;5748;53.102;8.456;2022-08-19T05:12:01;18.50;63.70
11387;DHT22;5748;53.102;8.456;2022-08-19T05:14:32;18.50;63.80
11387;DHT22;5748;53.102;8.456;2022-08-19T05:17:05;18.50;63.90
11387;DHT22;5748;53.102;8.456;2022-08-19T05:19:32;18.60;64.00
11387;DHT22;5748;53.102;8.456;2022-08-19T05:22:20;18.60;63.70
11387;DHT22;5748;53.102;8.456;2022-08-19T05:25:02;18.60;63.90
11387;DHT22;5748;53.102;8.456;2022-08-19T05:27:31;18.60;63.80
11387;DHT22;5748;53.102;8.456;2022-08-19T05:29:58;18.60;63.80
11387;DHT22;5748;53.102;8.456;2022-08-19T05:32:29;18.60;64.00
11387;DHT22;5748;53.102;8.456;2022-08-19T05:34:56;18.80;64.50
11387;DHT22;5748;53.102;8.456;2022-08-19T05:37:23;18.60;64.20
11387;DHT22;5748;53.102;8.456;2022-08-19T05:39:52;18.60;64.10
11387;DHT22;5748;53.102;8.456;2022-08-19T05:42:20;18.60;64.20
11387;DHT22;5748;53.102;8.456;2022-08-19T05:44:48;18.50;64.10
11387;DHT22;5748;53.102;8.456;2022-08-19T05:47:20;18.60;64.30
11387;DHT22;5748;53.102;8.456;2022-08-19T05:49:49;18.60;64.70
11387;DHT22;5748;53.102;8.456;2022-08-19T05:52:17;18.60;64.50
11387;DHT22;5748;53.102;8.456;2022-08-19T05:54:46;18.60;64.60
11387;DHT22;5748;53.102;8.456;2022-08-19T05:57:16;18.70;64.90
11387;DHT22;5748;53.102;8.456;2022-08-19T05:59:44;18.70;65.00
11387;DHT22;5748;53.102;8.456;2022-08-19T06:02:13;18.80;65.30
11387;DHT22;5748;53.102;8.456;2022-08-19T06:04:40;18.90;65.80
11387;DHT22;5748;53.102;8.456;2022-08-19T06:07:10;19.30;66.50
11387;DHT22;5748;53.102;8.456;2022-08-19T06:09:37;19.30;66.70
11387;DHT22;5748;53.102;8.456;2022-08-19T06:12:04;19.50;66.70
11387;DHT22;5748;53.102;8.456;2022-08-19T06:14:33;19.70;66.70
11387;DHT22;5748;53.102;8.456;2022-08-19T06:17:03;19.90;66.60
11387;DHT22;5748;53.102;8.456;2022-08-19T06:19:30;20.00;66.50
11387;DHT22;5748;53.102;8.456;2022-08-19T06:22:04;20.20;66.70
11387;DHT22;5748;53.102;8.456;2022-08-19T06:24:33;20.30;67.00
11387;DHT22;5748;53.102;8.456;2022-08-19T06:27:02;20.50;66.90
11387;DHT22;5748;53.102;8.456;2022-08-19T06:29:31;20.70;67.00
11387;DHT22;5748;53.102;8.456;2022-08-19T06:32:02;20.80;67.00
11387;DHT22;5748;53.102;8.456;2022-08-19T06:34:33;21.00;67.20
11387;DHT22;5748;53.102;8.456;2022-08-19T06:37:01;21.10;67.20
11387;DHT22;5748;53.102;8.456;2022-08-19T06:39:34;21.30;67.20
11387;DHT22;5748;53.102;8.456;2022-08-19T06:42:05;21.40;67.10
11387;DHT22;5748;53.102;8.456;2022-08-19T06:44:36;21.60;67.80
11387;DHT22;5748;53.102;8.456;2022-08-19T06:47:07;21.70;67.70
11387;DHT22;5748;53.102;8.456;2022-08-19T06:49:35;21.90;66.70
11387;DHT22;5748;53.102;8.456;2022-08-19T06:52:03;21.90;66.30
11387;DHT22;5748;53.102;8.456;2022-08-19T06:54:31;22.00;66.10
11387;DHT22;5748;53.102;8.456;2022-08-19T06:57:01;22.10;66.00
11387;DHT22;5748;53.102;8.456;2022-08-19T06:59:29;22.20;65.90
11387;DHT22;5748;53.102;8.456;2022-08-19T07:02:05;22.30;65.70
11387;DHT22;5748;53.102;8.456;2022-08-19T07:04:34;22.30;65.60
11387;DHT22;5748;53.102;8.456;2022-08-19T07:07:06;22.30;65.50
11387;DHT22;5748;53.102;8.456;2022-08-19T07:09:36;22.30;65.50
11387;DHT22;5748;53.102;8.456;2022-08-19T07:12:07;22.40;65.60
11387;DHT22;5748;53.102;8.456;2022-08-19T07:14:37;22.50;65.90
11387;DHT22;5748;53.102;8.456;2022-08-19T07:17:10;22.60;66.40
11387;DHT22;5748;53.102;8.456;2022-08-19T07:19:38;22.70;66.50
11387;DHT22;5748;53.102;8.456;2022-08-19T07:22:08;22.80;66.50
11387;DHT22;5748;53.102;8.456;2022-08-19T07:24:37;21.90;65.30
11387;DHT22;5748;53.102;8.456;2022-08-19T07:27:06;23.00;66.20
11387;DHT22;5748;53.102;8.456;2022-08-19T07:29:36;23.10;66.10
11387;DHT22;5748;53.102;8.456;2022-08-19T07:32:05;23.20;66.20
11387;DHT22;5748;53.102;8.456;2022-08-19T07:34:32;23.30;66.10
11387;DHT22;5748;53.102;8.456;2022-08-19T07:37:03;23.40;66.20
11387;DHT22;5748;53.102;8.456;2022-08-19T07:39:33;23.60;66.30
11387;DHT22;5748;53.102;8.456;2022-08-19T07:42:05;23.70;66.00
11387;DHT22;5748;53.102;8.456;2022-08-19T07:44:35;23.80;65.60
11387;DHT22;5748;53.102;8.456;2022-08-19T07:47:04;23.80;65.50
11387;DHT22;5748;53.102;8.456;2022-08-19T07:49:32;23.90;65.30
11387;DHT22;5748;53.102;8.456;2022-08-19T07:52:06;23.90;65.20
11387;DHT22;5748;53.102;8.456;2022-08-19T07:54:36;24.00;64.80
11387;DHT22;5748;53.102;8.456;2022-08-19T07:57:04;24.10;65.10
11387;DHT22;5748;53.102;8.456;2022-08-19T07:59:34;24.10;65.00
11387;DHT22;5748;53.102;8.456;2022-08-19T08:02:02;24.20;65.10
11387;DHT22;5748;53.102;8.456;2022-08-19T08:04:30;24.30;64.90
11387;DHT22;5748;53.102;8.456;2022-08-19T08:07:15;24.30;65.00
11387;DHT22;5748;53.102;8.456;2022-08-19T08:10:00;24.40;65.20
11387;DHT22;5748;53.102;8.456;2022-08-19T08:12:37;24.50;65.30
11387;DHT22;5748;53.102;8.456;2022-08-19T08:15:10;24.60;65.00
11387;DHT22;5748;53.102;8.456;2022-08-19T08:17:42;24.70;65.10
11387;DHT22;5748;53.102;8.456;2022-08-19T08:20:10;24.80;65.20
11387;DHT22;5748;53.102;8.456;2022-08-19T08:22:43;25.00;65.30
11387;DHT22;5748;53.102;8.456;2022-08-19T08:25:29;25.10;65.00
11387;DHT22;5748;53.102;8.456;2022-08-19T08:27:59;25.20;64.80
11387;DHT22;5748;53.102;8.456;2022-08-19T08:30:29;25.30;64.70
11387;DHT22;5748;53.102;8.456;2022-08-19T08:32:57;25.40;64.10
11387;DHT22;5748;53.102;8.456;2022-08-19T08:35:25;25.50;64.10
11387;DHT22;5748;53.102;8.456;2022-08-19T08:37:53;25.60;63.90
11387;DHT22;5748;53.102;8.456;2022-08-19T08:40:39;25.60;63.90
11387;DHT22;5748;53.102;8.456;2022-08-19T08:43:19;25.70;62.60
11387;DHT22;5748;53.102;8.456;2022-08-19T08:45:56;25.80;63.20
11387;DHT22;5748;53.102;8.456;2022-08-19T08:48:33;25.90;62.70
11387;DHT22;5748;53.102;8.456;2022-08-19T08:51:05;26.00;62.60
11387;DHT22;5748;53.102;8.456;2022-08-19T08:53:39;26.10;63.00
11387;DHT22;5748;53.102;8.456;2022-08-19T08:56:08;26.20;62.30
11387;DHT22;5748;53.102;8.456;2022-08-19T08:58:45;26.30;62.70
11387;DHT22;5748;53.102;8.456;2022-08-19T09:01:16;26.40;62.20
11387;DHT22;5748;53.102;8.456;2022-08-19T09:03:44;26.40;62.40
11387;DHT22;5748;53.102;8.456;2022-08-19T09:06:20;26.50;62.50
11387;DHT22;5748;53.102;8.456;2022-08-19T09:08:57;26.60;62.10
11387;DHT22;5748;53.102;8.456;2022-08-19T09:11:40;26.70;62.00
11387;DHT22;5748;53.102;8.456;2022-08-19T09:14:29;26.90;61.90
11387;DHT22;5748;53.102;8.456;2022-08-19T09:17:05;27.00;61.10
11387;DHT22;5748;53.102;8.456;2022-08-19T09:19:34;27.10;61.60
11387;DHT22;5748;53.102;8.456;2022-08-19T09:22:02;27.30;62.20
11387;DHT22;5748;53.102;8.456;2022-08-19T09:24:30;27.40;62.00
11387;DHT22;5748;53.102;8.456;2022-08-19T09:26:57;27.60;61.80
11387;DHT22;5748;53.102;8.456;2022-08-19T09:29:25;27.70;61.70
11387;DHT22;5748;53.102;8.456;2022-08-19T09:31:52;27.80;61.50
11387;DHT22;5748;53.102;8.456;2022-08-19T09:34:20;28.00;61.20
11387;DHT22;5748;53.102;8.456;2022-08-19T09:36:47;28.10;60.90
11387;DHT22;5748;53.102;8.456;2022-08-19T09:39:18;28.30;61.00
11387;DHT22;5748;53.102;8.456;2022-08-19T09:41:46;28.50;60.70
11387;DHT22;5748;53.102;8.456;2022-08-19T09:44:17;28.60;60.20
11387;DHT22;5748;53.102;8.456;2022-08-19T09:46:59;28.70;59.50
11387;DHT22;5748;53.102;8.456;2022-08-19T09:49:28;28.90;58.40
11387;DHT22;5748;53.102;8.456;2022-08-19T09:51:56;29.00;59.60
11387;DHT22;5748;53.102;8.456;2022-08-19T09:54:30;29.20;59.60
11387;DHT22;5748;53.102;8.456;2022-08-19T09:56:59;29.30;57.30
11387;DHT22;5748;53.102;8.456;2022-08-19T09:59:27;29.50;59.00
11387;DHT22;5748;53.102;8.456;2022-08-19T10:01:56;29.60;58.50
11387;DHT22;5748;53.102;8.456;2022-08-19T10:04:25;29.80;58.40
11387;DHT22;5748;53.102;8.456;2022-08-19T10:07:14;29.90;58.70
11387;DHT22;5748;53.102;8.456;2022-08-19T10:09:51;30.10;57.80
11387;DHT22;5748;53.102;8.456;2022-08-19T10:12:27;30.30;56.40
11387;DHT22;5748;53.102;8.456;2022-08-19T10:14:54;30.40;56.40
11387;DHT22;5748;53.102;8.456;2022-08-19T10:17:28;30.50;57.20
11387;DHT22;5748;53.102;8.456;2022-08-19T10:19:55;30.60;55.20
11387;DHT22;5748;53.102;8.456;2022-08-19T10:22:24;30.70;56.30
11387;DHT22;5748;53.102;8.456;2022-08-19T10:24:51;30.80;55.80
11387;DHT22;5748;53.102;8.456;2022-08-19T10:27:41;30.80;56.20
11387;DHT22;5748;53.102;8.456;2022-08-19T10:30:23;30.90;54.50
11387;DHT22;5748;53.102;8.456;2022-08-19T10:32:50;31.00;53.60
11387;DHT22;5748;53.102;8.456;2022-08-19T10:35:22;31.20;56.10
11387;DHT22;5748;53.102;8.456;2022-08-19T10:37:56;31.30;54.80
11387;DHT22;5748;53.102;8.456;2022-08-19T10:40:24;31.50;54.40
11387;DHT22;5748;53.102;8.456;2022-08-19T10:42:52;31.70;56.00
11387;DHT22;5748;53.102;8.456;2022-08-19T10:45:23;31.90;55.80
11387;DHT22;5748;53.102;8.456;2022-08-19T10:47:52;32.10;55.30
11387;DHT22;5748;53.102;8.456;2022-08-19T10:50:20;32.50;56.60
11387;DHT22;5748;53.102;8.456;2022-08-19T10:53:06;32.80;56.30
11387;DHT22;5748;53.102;8.456;2022-08-19T10:55:34;33.30;55.60
11387;DHT22;5748;53.102;8.456;2022-08-19T10:58:20;33.80;56.80
11387;DHT22;5748;53.102;8.456;2022-08-19T11:00:52;34.30;55.80
11387;DHT22;5748;53.102;8.456;2022-08-19T11:03:20;34.70;55.20
11387;DHT22;5748;53.102;8.456;2022-08-19T11:05:57;35.20;54.90
11387;DHT22;5748;53.102;8.456;2022-08-19T11:08:27;35.60;51.00
11387;DHT22;5748;53.102;8.456;2022-08-19T11:10:59;36.00;53.00
11387;DHT22;5748;53.102;8.456;2022-08-19T11:13:28;36.40;52.50
11387;DHT22;5748;53.102;8.456;2022-08-19T11:15:59;36.70;53.00
11387;DHT22;5748;53.102;8.456;2022-08-19T11:18:28;37.10;50.50
11387;DHT22;5748;53.102;8.456;2022-08-19T11:21:06;37.40;51.30
11387;DHT22;5748;53.102;8.456;2022-08-19T11:23:43;37.70;48.00
11387;DHT22;5748;53.102;8.456;2022-08-19T11:26:15;37.80;48.80
11387;DHT22;5748;53.102;8.456;2022-08-19T11:28:45;38.00;49.30
11387;DHT22;5748;53.102;8.456;2022-08-19T11:31:17;38.10;48.90
11387;DHT22;5748;53.102;8.456;2022-08-19T11:33:52;38.20;47.20
11387;DHT22;5748;53.102;8.456;2022-08-19T11:36:21;38.20;46.40
11387;DHT22;5748;53.102;8.456;2022-08-19T11:38:58;38.40;48.50
11387;DHT22;5748;53.102;8.456;2022-08-19T11:41:25;38.50;46.40
11387;DHT22;5748;53.102;8.456;2022-08-19T11:44:02;38.80;48.20
11387;DHT22;5748;53.102;8.456;2022-08-19T11:46:46;39.00;48.00
11387;DHT22;5748;53.102;8.456;2022-08-19T11:49:20;39.20;47.20
11387;DHT22;5748;53.102;8.456;2022-08-19T11:51:48;39.40;47.20
11387;DHT22;5748;53.102;8.456;2022-08-19T11:54:18;39.70;46.90
11387;DHT22;5748;53.102;8.456;2022-08-19T11:57:05;39.90;45.00
11387;DHT22;5748;53.102;8.456;2022-08-19T11:59:35;40.10;45.20
11387;DHT22;5748;53.102;8.456;2022-08-19T12:02:05;40.30;45.20
11387;DHT22;5748;53.102;8.456;2022-08-19T12:04:44;40.40;45.00
11387;DHT22;5748;53.102;8.456;2022-08-19T12:07:24;40.50;45.00
11387;DHT22;5748;53.102;8.456;2022-08-19T12:09:59;40.80;42.60
11387;DHT22;5748;53.102;8.456;2022-08-19T12:12:41;41.00;43.10
11387;DHT22;5748;53.102;8.456;2022-08-19T12:15:16;41.20;44.30
11387;DHT22;5748;53.102;8.456;2022-08-19T12:17:58;41.50;42.70
11387;DHT22;5748;53.102;8.456;2022-08-19T12:20:26;41.60;40.60
11387;DHT22;5748;53.102;8.456;2022-08-19T12:22:59;41.70;42.50
11387;DHT22;5748;53.102;8.456;2022-08-19T12:25:37;41.80;42.20
11387;DHT22;5748;53.102;8.456;2022-08-19T12:28:07;41.90;38.80
11387;DHT22;5748;53.102;8.456;2022-08-19T12:30:45;42.10;41.00
11387;DHT22;5748;53.102;8.456;2022-08-19T12:33:24;42.30;38.70
11387;DHT22;5748;53.102;8.456;2022-08-19T12:36:20;42.50;38.70
11387;DHT22;5748;53.102;8.456;2022-08-19T12:39:02;42.70;39.60
11387;DHT22;5748;53.102;8.456;2022-08-19T12:41:40;43.10;41.00
11387;DHT22;5748;53.102;8.456;2022-08-19T12:44:24;43.50;39.00
11387;DHT22;5748;53.102;8.456;2022-08-19T12:47:08;43.80;40.30
11387;DHT22;5748;53.102;8.456;2022-08-19T12:49:51;44.30;36.40
11387;DHT22;5748;53.102;8.456;2022-08-19T12:52:18;44.60;37.00
11387;DHT22;5748;53.102;8.456;2022-08-19T12:54:49;44.80;38.20
11387;DHT22;5748;53.102;8.456;2022-08-19T12:57:20;44.90;38.00
11387;DHT22;5748;53.102;8.456;2022-08-19T12:59:54;45.10;36.60
11387;DHT22;5748;53.102;8.456;2022-08-19T13:02:28;45.40;35.70
11387;DHT22;5748;53.102;8.456;2022-08-19T13:04:57;45.60;35.20
11387;DHT22;5748;53.102;8.456;2022-08-19T13:07:24;45.80;37.00
11387;DHT22;5748;53.102;8.456;2022-08-19T13:09:51;46.00;36.20
11387;DHT22;5748;53.102;8.456;2022-08-19T13:12:20;46.10;35.40
11387;DHT22;5748;53.102;8.456;2022-08-19T13:14:51;46.20;34.80
11387;DHT22;5748;53.102;8.456;2022-08-19T13:17:19;46.20;34.00
11387;DHT22;5748;53.102;8.456;2022-08-19T13:19:46;46.30;34.50
11387;DHT22;5748;53.102;8.456;2022-08-19T13:22:23;46.30;34.50
11387;DHT22;5748;53.102;8.456;2022-08-19T13:24:52;46.40;31.50
11387;DHT22;5748;53.102;8.456;2022-08-19T13:27:24;46.30;32.90
11387;DHT22;5748;53.102;8.456;2022-08-19T13:29:51;46.30;32.00
11387;DHT22;5748;53.102;8.456;2022-08-19T13:32:36;46.30;33.30
11387;DHT22;5748;53.102;8.456;2022-08-19T13:35:33;46.40;33.50
11387;DHT22;5748;53.102;8.456;2022-08-19T13:38:02;46.40;30.70
11387;DHT22;5748;53.102;8.456;2022-08-19T13:40:31;46.50;32.50
11387;DHT22;5748;53.102;8.456;2022-08-19T13:43:01;46.50;32.70
11387;DHT22;5748;53.102;8.456;2022-08-19T13:45:32;46.60;31.80
11387;DHT22;5748;53.102;8.456;2022-08-19T13:48:01;46.60;31.40
11387;DHT22;5748;53.102;8.456;2022-08-19T13:50:32;46.60;31.60
11387;DHT22;5748;53.102;8.456;2022-08-19T13:53:01;46.60;31.20
11387;DHT22;5748;53.102;8.456;2022-08-19T13:55:30;46.50;30.80
11387;DHT22;5748;53.102;8.456;2022-08-19T13:58:03;46.40;30.70
11387;DHT22;5748;53.102;8.456;2022-08-19T14:00:35;46.30;30.00
11387;DHT22;5748;53.102;8.456;2022-08-19T14:03:04;46.10;30.00
11387;DHT22;5748;53.102;8.456;2022-08-19T14:05:31;45.90;30.20
11387;DHT22;5748;53.102;8.456;2022-08-19T14:07:59;45.60;30.00
11387;DHT22;5748;53.102;8.456;2022-08-19T14:10:27;45.20;29.80
11387;DHT22;5748;53.102;8.456;2022-08-19T14:12:59;44.80;29.20
11387;DHT22;5748;53.102;8.456;2022-08-19T14:15:29;44.30;29.00
11387;DHT22;5748;53.102;8.456;2022-08-19T14:17:58;43.70;29.10
11387;DHT22;5748;53.102;8.456;2022-08-19T14:20:25;43.10;29.20
11387;DHT22;5748;53.102;8.456;2022-08-19T14:22:57;42.40;29.30
11387;DHT22;5748;53.102;8.456;2022-08-19T14:25:26;41.80;29.10
11387;DHT22;5748;53.102;8.456;2022-08-19T14:27:55;41.30;29.50
11387;DHT22;5748;53.102;8.456;2022-08-19T14:30:26;40.70;30.00
11387;DHT22;5748;53.102;8.456;2022-08-19T14:33:04;40.20;29.60
11387;DHT22;5748;53.102;8.456;2022-08-19T14:35:33;39.70;29.40
11387;DHT22;5748;53.102;8.456;2022-08-19T14:38:03;39.20;30.00
11387;DHT22;5748;53.102;8.456;2022-08-19T14:40:31;38.80;30.50
11387;DHT22;5748;53.102;8.456;2022-08-19T14:43:03;38.40;30.40
11387;DHT22;5748;53.102;8.456;2022-08-19T14:45:31;38.00;30.30
11387;DHT22;5748;53.102;8.456;2022-08-19T14:47:59;37.60;30.70
11387;DHT22;5748;53.102;8.456;2022-08-19T14:50:28;37.30;31.10
11387;DHT22;5748;53.102;8.456;2022-08-19T14:52:58;36.90;31.10
11387;DHT22;5748;53.102;8.456;2022-08-19T14:55:27;36.60;31.40
11387;DHT22;5748;53.102;8.456;2022-08-19T14:57:55;36.30;31.80
11387;DHT22;5748;53.102;8.456;2022-08-19T15:00:23;36.10;32.10
11387;DHT22;5748;53.102;8.456;2022-08-19T15:02:50;35.90;32.20
11387;DHT22;5748;53.102;8.456;2022-08-19T15:05:19;35.70;32.40
11387;DHT22;5748;53.102;8.456;2022-08-19T15:07:49;35.60;32.90
11387;DHT22;5748;53.102;8.456;2022-08-19T15:10:17;35.60;33.60
11387;DHT22;5748;53.102;8.456;2022-08-19T15:12:44;35.70;33.90
11387;DHT22;5748;53.102;8.456;2022-08-19T15:15:14;35.90;34.20
11387;DHT22;5748;53.102;8.456;2022-08-19T15:17:43;36.10;34.40
11387;DHT22;5748;53.102;8.456;2022-08-19T15:20:12;36.40;34.20
11387;DHT22;5748;53.102;8.456;2022-08-19T15:22:41;36.60;34.10
11387;DHT22;5748;53.102;8.456;2022-08-19T15:25:12;36.80;33.80
11387;DHT22;5748;53.102;8.456;2022-08-19T15:27:40;36.90;33.50
11387;DHT22;5748;53.102;8.456;2022-08-19T15:30:09;37.00;33.30
11387;DHT22;5748;53.102;8.456;2022-08-19T15:32:38;36.90;32.70
11387;DHT22;5748;53.102;8.456;2022-08-19T15:35:06;36.80;32.60
11387;DHT22;5748;53.102;8.456;2022-08-19T15:37:34;36.60;32.50
11387;DHT22;5748;53.102;8.456;2022-08-19T15:40:02;36.40;33.10
11387;DHT22;5748;53.102;8.456;2022-08-19T15:42:31;36.20;32.50
11387;DHT22;5748;53.102;8.456;2022-08-19T15:44:58;36.00;32.70
11387;DHT22;5748;53.102;8.456;2022-08-19T15:47:28;35.70;32.70
11387;DHT22;5748;53.102;8.456;2022-08-19T15:49:55;35.60;32.80
11387;DHT22;5748;53.102;8.456;2022-08-19T15:52:23;35.40;32.80
11387;DHT22;5748;53.102;8.456;2022-08-19T15:54:51;35.20;32.80
11387;DHT22;5748;53.102;8.456;2022-08-19T15:57:18;35.00;33.00
11387;DHT22;5748;53.102;8.456;2022-08-19T16:00:06;34.90;33.00
11387;DHT22;5748;53.102;8.456;2022-08-19T16:02:51;34.60;33.20
11387;DHT22;5748;53.102;8.456;2022-08-19T16:05:35;34.50;33.30
11387;DHT22;5748;53.102;8.456;2022-08-19T16:08:20;34.30;33.50
11387;DHT22;5748;53.102;8.456;2022-08-19T16:10:47;34.20;34.20
11387;DHT22;5748;53.102;8.456;2022-08-19T16:13:14;34.00;33.60
11387;DHT22;5748;53.102;8.456;2022-08-19T16:15:42;33.90;33.70
11387;DHT22;5748;53.102;8.456;2022-08-19T16:18:09;33.80;33.80